Time;durP1;ratioP1;P1;durP2;ratioP2;P2;SDS_P1;SDS_P2;PMS_P1;PMS_P2;Temp;Humidity;BMP_temperature;BMP_pressure;BME280_temperature;BME280_humidity;BME280_pressure;Samples;Min_cycle;Max_cycle;Signal;HPM_P1;HPM_P2
2023/06/20 00:00:50;;;;;;;;;2.67;2.00;;;;;21.82;70.11;100577.06;5056841;28;45286;-71
2023/06/20 00:03:16;;;;;;;;;5.00;3.00;;;;;21.63;69.67;100556.41;5038996;28;45518;-72
2023/06/20 00:05:42;;;;;;;;;2.00;2.00;;;;;21.80;69.63;100581.00;5057458;28;45427;-73
2023/06/20 00:08:08;;;;;;;;;2.00;2.00;;;;;21.79;69.56;100582.06;5056197;28;45495;-74
2023/06/20 00:10:34;;;;;;;;;3.00;3.00;;;;;21.71;69.75;100558.00;5057238;28;46329;-73
2023/06/20 00:12:59;;;;;;;;;3.00;2.00;;;;;21.82;69.49;100566.25;5060441;28;45699;-73
2023/06/20 00:15:25;;;;;;;;;3.00;3.00;;;;;21.89;69.60;100570.75;5077712;28;45320;-73
2023/06/20 00:17:56;;;;;;;;;2.00;2.00;;;;;21.60;70.21;100526.25;5076619;27;46622;-73
2023/06/20 00:20:21;;;;;;;;;1.33;1.00;;;;;21.54;70.06;100515.25;5076789;28;45519;-72
2023/06/20 00:22:50;;;;;;;;;4.00;3.00;;;;;21.68;70.09;100548.44;5076895;28;45376;-73
2023/06/20 00:25:16;;;;;;;;;1.67;1.67;;;;;21.72;70.96;100559.66;5077409;28;45484;-73
2023/06/20 00:27:42;;;;;;;;;3.00;3.00;;;;;21.70;70.62;100567.16;5076551;27;47484;-75
2023/06/20 00:30:08;;;;;;;;;3.00;2.67;;;;;21.71;70.68;100558.00;5076759;27;45473;-74
2023/06/20 00:32:33;;;;;;;;;1.67;1.67;;;;;21.66;70.53;100549.72;5076917;28;45304;-74
2023/06/20 00:34:59;;;;;;;;;1.25;1.25;;;;;21.67;70.63;100543.25;5057769;28;57952;-72
2023/06/20 00:37:25;;;;;;;;;2.00;2.00;;;;;21.62;70.71;100545.78;5076381;28;45588;-75
2023/06/20 00:39:51;;;;;;;;;2.67;1.00;;;;;21.74;70.83;100565.66;5076649;27;45333;-72
2023/06/20 00:42:23;;;;;;;;;1.00;1.00;;;;;21.38;70.87;100507.69;5076468;27;57633;-71
2023/06/20 00:44:49;;;;;;;;;3.00;2.00;;;;;21.73;70.94;100561.31;5092553;27;45708;-72
2023/06/20 00:47:16;;;;;;;;;2.00;1.00;;;;;21.60;70.50;100523.53;5076655;27;45532;-72
2023/06/20 00:49:44;;;;;;;;;3.00;2.00;;;;;21.89;71.06;100560.75;5076276;27;45384;-73
2023/06/20 00:52:09;;;;;;;;;3.67;2.67;;;;;21.88;70.54;100560.97;5076335;28;45283;-72
2023/06/20 00:54:35;;;;;;;;;1.75;1.75;;;;;21.93;70.25;100551.13;5076611;28;45382;-74
2023/06/20 00:57:01;;;;;;;;;2.67;2.00;;;;;21.02;71.07;100407.50;5076523;28;47002;-72
2023/06/20 00:59:26;;;;;;;;;3.67;2.00;;;;;21.82;70.94;100536.47;5076205;28;45458;-73
2023/06/20 01:01:53;;;;;;;;;1.50;1.50;;;;;21.74;71.58;100538.63;5058322;28;45476;-74
2023/06/20 01:04:21;;;;;;;;;2.67;2.33;;;;;21.45;71.29;100494.97;5076669;28;45264;-74
2023/06/20 01:07:02;;;;;;;;;2.00;2.00;;;;;21.70;71.33;100545.53;5076121;27;46852;-73
2023/06/20 01:09:46;;;;;;;;;1.25;1.25;;;;;21.80;71.10;100551.25;5076225;28;45363;-72
2023/06/20 01:12:21;;;;;;;;;3.67;3.67;;;;;21.75;71.80;100564.63;5076723;27;45504;-72
2023/06/20 01:14:53;;;;;;;;;3.50;3.00;;;;;21.71;71.78;100547.19;5076599;28;45400;-73
2023/06/20 01:17:35;;;;;;;;;4.50;3.00;;;;;21.72;71.77;100559.66;5077119;27;46533;-73
2023/06/20 01:20:14;;;;;;;;;2.00;2.00;;;;;21.72;71.74;100559.66;5077310;28;45363;-72
2023/06/20 01:22:48;;;;;;;;;3.00;2.00;;;;;21.75;71.49;100551.91;5079861;28;45237;-73
2023/06/20 01:25:30;;;;;;;;;1.67;1.67;;;;;21.77;71.72;100552.53;5079539;27;45564;-72
2023/06/20 01:28:04;;;;;;;;;2.00;2.00;;;;;21.65;72.03;100526.44;5079218;27;45863;-73
2023/06/20 01:30:41;;;;;;;;;0.33;0.33;;;;;21.70;71.75;100523.88;5059422;28;45316;-72
2023/06/20 01:33:08;;;;;;;;;3.00;2.00;;;;;21.80;71.56;100537.72;5041176;28;45480;-72
2023/06/20 01:35:35;;;;;;;;;4.67;2.33;;;;;21.74;72.11;100535.91;5079800;28;45601;-72
2023/06/20 01:38:07;;;;;;;;;2.33;2.33;;;;;21.72;71.99;100538.84;5060827;28;48710;-71
2023/06/20 01:40:33;;;;;;;;;3.33;3.33;;;;;21.50;72.21;100514.06;5079065;28;45318;-71
2023/06/20 01:42:59;;;;;;;;;2.67;2.67;;;;;21.53;72.74;100531.72;5079415;27;45307;-71
2023/06/20 01:45:31;;;;;;;;;4.33;3.33;;;;;21.51;72.97;100534.66;5079399;28;45546;-72
2023/06/20 01:48:00;;;;;;;;;1.00;1.00;;;;;21.10;72.95;100475.66;5060874;28;47805;-71
2023/06/20 01:50:28;;;;;;;;;2.00;2.00;;;;;21.50;72.82;100534.88;5078698;27;45452;-73
2023/06/20 01:52:55;;;;;;;;;3.00;3.00;;;;;21.48;72.93;100524.28;5078903;27;45530;-72
2023/06/20 01:55:21;;;;;;;;;1.00;1.00;;;;;21.53;73.04;100532.53;5079140;28;45376;-73
2023/06/20 01:57:49;;;;;;;;;2.00;2.00;;;;;21.59;72.74;100549.75;5079244;28;47023;-73
2023/06/20 02:00:16;;;;;;;;;2.00;2.00;;;;;21.50;73.07;100541.09;5078772;27;45171;-73
2023/06/20 02:02:43;;;;;;;;;2.00;2.00;;;;;21.49;73.49;100561.09;5079472;27;45261;-73
2023/06/20 02:05:11;;;;;;;;;3.00;3.00;;;;;21.49;73.70;100544.88;5079018;28;45624;-73
2023/06/20 02:07:38;;;;;;;;;4.00;4.00;;;;;21.51;73.64;100540.06;5078607;27;46684;-72
2023/06/20 02:10:05;;;;;;;;;3.33;3.33;;;;;21.43;74.14;100547.63;5078787;28;45531;-72
2023/06/20 02:12:33;;;;;;;;;5.67;3.00;;;;;21.39;73.76;100531.00;5079053;28;45245;-73
2023/06/20 02:14:58;;;;;;;;;5.00;4.00;;;;;21.42;73.95;100533.25;5078844;27;45473;-73
2023/06/20 02:17:25;;;;;;;;;2.75;2.75;;;;;21.40;73.86;100535.34;5078884;27;46523;-73
2023/06/20 02:19:51;;;;;;;;;2.33;2.33;;;;;21.45;74.13;100537.41;5078829;28;45395;-72
2023/06/20 02:22:18;;;;;;;;;2.00;2.00;;;;;21.24;74.05;100498.06;5078647;27;45381;-71
2023/06/20 02:24:47;;;;;;;;;2.00;2.00;;;;;21.42;73.73;100511.59;5060520;28;45439;-72
2023/06/20 02:27:15;;;;;;;;;5.33;3.00;;;;;21.51;73.74;100531.13;5078541;28;46034;-71
2023/06/20 02:29:42;;;;;;;;;1.00;1.00;;;;;21.48;73.85;100521.56;5060227;27;45400;-72
2023/06/20 02:32:10;;;;;;;;;3.00;3.00;;;;;21.35;73.94;100494.63;5078734;27;45525;-72
2023/06/20 02:34:42;;;;;;;;;4.67;2.67;;;;;21.41;74.21;100493.72;5078601;27;45544;-72
2023/06/20 02:37:09;;;;;;;;;4.67;3.33;;;;;21.46;74.12;100517.44;5059985;28;47696;-72
2023/06/20 02:39:35;;;;;;;;;6.33;2.33;;;;;21.40;74.17;100491.25;5078048;27;45307;-73
2023/06/20 02:42:00;;;;;;;;;3.67;3.67;;;;;21.46;74.44;100518.25;5078509;27;45481;-73
2023/06/20 02:44:26;;;;;;;;;2.67;2.67;;;;;21.48;74.33;100515.34;5071856;28;45336;-72
2023/06/20 02:47:10;;;;;;;;;4.00;4.00;;;;;21.50;73.97;100519.47;5057952;28;45863;-72
2023/06/20 02:49:45;;;;;;;;;3.33;3.33;;;;;21.47;73.79;100503.69;5057977;28;45513;-73
2023/06/20 02:52:10;;;;;;;;;3.00;2.67;;;;;21.55;73.72;100511.50;5057814;28;45262;-72
2023/06/20 02:54:53;;;;;;;;;4.67;3.67;;;;;21.58;73.78;100512.94;5057987;28;45375;-72
2023/06/20 02:57:20;;;;;;;;;3.33;3.33;;;;;21.61;73.54;100517.06;5057947;28;46944;-72
2023/06/20 02:59:58;;;;;;;;;3.33;3.00;;;;;21.61;73.32;100514.38;5058096;28;45412;-72
2023/06/20 03:02:28;;;;;;;;;3.00;3.00;;;;;21.57;73.10;100508.59;5057975;28;45459;-73
2023/06/20 03:04:57;;;;;;;;;4.00;3.33;;;;;21.15;73.46;100439.84;5057937;28;45565;-73
2023/06/20 03:07:25;;;;;;;;;4.00;3.00;;;;;21.43;73.62;100485.44;5057278;28;47377;-72
2023/06/20 03:09:51;;;;;;;;;5.00;4.00;;;;;21.53;73.60;100513.59;5057432;28;45500;-73
2023/06/20 03:12:17;;;;;;;;;3.00;2.00;;;;;21.50;73.86;100502.41;5057821;28;45454;-71
2023/06/20 03:14:42;;;;;;;;;3.00;3.00;;;;;21.54;73.73;100499.03;5057921;28;45325;-72
2023/06/20 03:17:07;;;;;;;;;5.00;4.00;;;;;21.45;73.89;100492.25;5057935;28;46468;-73
2023/06/20 03:19:33;;;;;;;;;3.00;3.00;;;;;21.43;74.00;100490.84;5073059;27;45453;-73
2023/06/20 03:21:58;;;;;;;;;4.33;3.00;;;;;21.52;73.98;100506.53;5057446;28;45382;-72
2023/06/20 03:24:23;;;;;;;;;6.33;5.33;;;;;21.47;73.72;100492.88;5057829;28;45447;-72
2023/06/20 03:26:49;;;;;;;;;3.00;3.00;;;;;21.36;73.45;100469.22;5057213;28;50112;-72
2023/06/20 03:29:14;;;;;;;;;4.67;3.00;;;;;21.44;73.74;100471.69;5060290;28;45456;-71
2023/06/20 03:31:39;;;;;;;;;6.00;3.00;;;;;21.49;73.29;100479.13;5077730;27;45519;-74
2023/06/20 03:34:05;;;;;;;;;5.67;4.33;;;;;21.54;73.81;100488.22;5077914;28;45304;-73
2023/06/20 03:36:30;;;;;;;;;6.67;5.00;;;;;21.49;73.44;100479.94;5077526;28;45911;-72
2023/06/20 03:38:55;;;;;;;;;5.00;4.00;;;;;21.47;73.64;100470.41;5077391;28;56200;-73
2023/06/20 03:41:20;;;;;;;;;5.33;5.33;;;;;21.53;73.67;100486.56;5077208;28;47757;-73
2023/06/20 03:43:46;;;;;;;;;4.00;3.00;;;;;21.53;73.89;100497.38;5077272;28;45482;-73
2023/06/20 03:46:11;;;;;;;;;5.00;5.00;;;;;21.49;73.74;100484.53;5076885;28;55262;-73
2023/06/20 03:48:36;;;;;;;;;5.00;4.00;;;;;21.29;73.61;100452.25;5077242;28;45453;-72
2023/06/20 03:51:02;;;;;;;;;5.33;5.33;;;;;21.56;73.48;100496.09;5077183;27;45494;-72
2023/06/20 03:53:27;;;;;;;;;3.67;3.00;;;;;21.33;73.90;100458.03;5077338;28;45364;-72
2023/06/20 03:55:53;;;;;;;;;6.33;4.33;;;;;21.48;73.75;100467.47;5055110;28;47595;-72
2023/06/20 03:58:18;;;;;;;;;3.00;3.00;;;;;21.09;74.01;100414.53;5055333;28;54811;-73
2023/06/20 04:00:43;;;;;;;;;4.00;4.00;;;;;21.48;73.63;100486.41;5056808;28;45293;-74
2023/06/20 04:03:09;;;;;;;;;4.67;4.67;;;;;21.54;73.83;100496.34;5055969;28;45495;-72
2023/06/20 04:05:34;;;;;;;;;4.00;3.00;;;;;21.53;73.66;100485.72;5056409;28;46556;-72
2023/06/20 04:08:01;;;;;;;;;6.67;4.33;;;;;21.50;73.70;100487.00;5056082;28;53541;-72
2023/06/20 04:10:27;;;;;;;;;4.00;4.00;;;;;21.55;73.79;100483.63;5056627;28;45383;-76
2023/06/20 04:12:52;;;;;;;;;5.00;4.00;;;;;21.47;73.67;100487.47;5055821;28;45440;-73
2023/06/20 04:15:17;;;;;;;;;4.33;4.33;;;;;21.35;73.73;100473.00;5055857;28;62697;-73
2023/06/20 04:17:44;;;;;;;;;6.00;3.67;;;;;21.46;73.64;100480.41;5056647;28;45396;-73
2023/06/20 04:20:12;;;;;;;;;7.67;6.00;;;;;21.58;73.26;100501.28;5056412;28;45421;-73
2023/06/20 04:22:42;;;;;;;;;5.00;5.00;;;;;21.45;72.96;100481.44;5056641;28;45487;-74
2023/06/20 04:25:08;;;;;;;;;9.67;6.00;;;;;21.17;73.69;100443.16;5055907;28;46921;-72
2023/06/20 04:27:33;;;;;;;;;5.67;5.67;;;;;21.55;73.48;100497.97;5056504;28;45418;-73
2023/06/20 04:29:59;;;;;;;;;6.00;6.00;;;;;21.27;73.50;100459.75;5056243;28;45529;-72
2023/06/20 04:32:24;;;;;;;;;6.00;5.00;;;;;21.51;73.53;100499.47;5056463;28;45549;-74
2023/06/20 04:34:52;;;;;;;;;6.00;5.00;;;;;21.48;73.78;100489.09;5055818;28;46594;-73
2023/06/20 04:37:18;;;;;;;;;5.00;5.00;;;;;21.48;73.65;100493.69;5056158;28;45251;-71
2023/06/20 04:39:43;;;;;;;;;4.00;4.00;;;;;21.58;73.22;100507.53;5056028;28;45308;-74
2023/06/20 04:42:09;;;;;;;;;5.00;4.00;;;;;21.58;73.07;100504.00;5055892;28;52888;-73
2023/06/20 04:44:34;;;;;;;;;6.33;4.67;;;;;21.55;73.13;100495.28;5055448;28;55216;-72
2023/06/20 04:46:59;;;;;;;;;4.67;4.67;;;;;21.58;72.99;100493.19;5057092;28;45463;-73
2023/06/20 04:49:25;;;;;;;;;7.00;6.33;;;;;21.55;73.03;100489.88;5057021;28;45328;-74
2023/06/20 04:51:50;;;;;;;;;5.67;5.67;;;;;21.42;73.57;100472.91;5055605;28;45359;-73
2023/06/20 04:54:15;;;;;;;;;4.33;4.33;;;;;21.45;73.19;100477.91;5056781;28;53522;-73
2023/06/20 04:56:41;;;;;;;;;4.33;4.33;;;;;21.51;73.17;100480.53;5079642;27;45286;-73
2023/06/20 04:59:07;;;;;;;;;5.00;5.00;;;;;21.51;73.42;100472.44;5080060;27;45352;-74
2023/06/20 05:01:34;;;;;;;;;5.00;5.00;;;;;21.59;73.12;100475.91;5061651;28;45504;-71
2023/06/20 05:03:59;;;;;;;;;5.00;5.00;;;;;21.61;73.05;100477.31;5061368;28;47457;-71
2023/06/20 05:06:24;;;;;;;;;6.67;6.33;;;;;21.67;72.74;100483.75;5045491;28;45502;-72
2023/06/20 05:08:52;;;;;;;;;9.33;8.33;;;;;21.60;72.68;100474.84;5060110;28;45362;-73
2023/06/20 05:11:17;;;;;;;;;7.33;6.67;;;;;21.41;72.19;100450.47;5059871;28;45253;-72
2023/06/20 05:13:43;;;;;;;;;4.00;4.00;;;;;21.62;72.99;100478.16;5041017;28;47547;-73
2023/06/20 05:16:08;;;;;;;;;10.33;6.67;;;;;21.75;72.52;100488.84;5059472;28;45340;-74
2023/06/20 05:18:34;;;;;;;;;6.33;5.33;;;;;21.72;72.20;100484.72;5059397;28;45441;-72
2023/06/20 05:21:00;;;;;;;;;3.67;3.33;;;;;21.38;72.25;100413.03;5059488;28;45354;-74
2023/06/20 05:23:26;;;;;;;;;4.67;4.67;;;;;21.71;72.11;100458.72;5058618;28;46658;-75
2023/06/20 05:25:51;;;;;;;;;5.33;5.33;;;;;21.81;72.00;100488.78;5058988;28;45316;-72
2023/06/20 05:28:16;;;;;;;;;7.00;5.67;;;;;21.83;71.75;100480.47;5059268;28;45292;-74
2023/06/20 05:30:42;;;;;;;;;6.00;6.00;;;;;21.83;72.24;100483.16;5058705;28;50749;-73
2023/06/20 05:33:08;;;;;;;;;4.33;4.33;;;;;21.81;71.81;100485.25;5058695;28;46401;-73
2023/06/20 05:35:34;;;;;;;;;9.00;7.00;;;;;21.81;72.00;100469.00;5058896;28;45335;-71
2023/06/20 05:37:59;;;;;;;;;6.33;6.00;;;;;21.92;71.43;100468.28;5058824;28;45483;-75
2023/06/20 05:40:25;;;;;;;;;6.00;5.00;;;;;21.92;71.15;100446.63;5058547;28;45435;-73
2023/06/20 05:42:50;;;;;;;;;7.67;5.67;;;;;22.02;71.47;100457.72;5059418;28;45286;-72
2023/06/20 05:45:16;;;;;;;;;7.75;7.50;;;;;21.89;70.81;100436.25;5059765;28;45249;-73
2023/06/20 05:47:43;;;;;;;;;7.00;6.00;;;;;22.05;71.20;100461.94;5041123;28;45437;-73
2023/06/20 05:50:09;;;;;;;;;7.33;6.33;;;;;21.79;70.89;100411.56;5059226;28;45579;-72
2023/06/20 05:52:35;;;;;;;;;5.33;5.33;;;;;22.23;70.54;100464.63;5058168;28;46122;-75
2023/06/20 05:55:01;;;;;;;;;6.67;5.33;;;;;22.44;69.70;100466.03;5039947;28;45391;-72
2023/06/20 05:57:26;;;;;;;;;4.00;2.33;;;;;22.62;69.30;100468.66;5074296;28;45496;-72
2023/06/20 05:59:52;;;;;;;;;6.00;4.50;;;;;22.70;68.75;100476.50;5058691;28;45328;-72
2023/06/20 06:02:19;;;;;;;;;8.00;7.00;;;;;22.76;68.79;100463.91;5058349;28;45749;-73
2023/06/20 06:04:44;;;;;;;;;9.00;8.00;;;;;22.86;68.05;100463.38;5073920;28;45354;-72
2023/06/20 06:07:10;;;;;;;;;18.67;14.67;;;;;22.83;68.16;100428.63;5057792;28;45241;-74
2023/06/20 06:09:36;;;;;;;;;8.00;7.00;;;;;23.31;67.19;100461.00;5040449;28;45730;-71
2023/06/20 06:12:01;;;;;;;;;9.00;8.00;;;;;23.44;66.13;100457.25;5073309;27;47854;-72
2023/06/20 06:14:27;;;;;;;;;7.00;7.00;;;;;23.62;65.85;100457.94;5058128;28;45333;-72
2023/06/20 06:16:52;;;;;;;;;9.00;6.33;;;;;23.44;64.83;100416.53;5073622;28;45292;-77
2023/06/20 06:19:20;;;;;;;;;8.33;7.00;;;;;23.88;64.85;100472.13;5060388;28;45600;-74
2023/06/20 06:21:45;;;;;;;;;8.67;8.00;;;;;23.74;64.28;100436.25;5067286;28;45677;-72
2023/06/20 06:24:10;;;;;;;;;8.67;8.00;;;;;23.80;64.37;100465.13;5057975;28;45414;-73
2023/06/20 06:26:36;;;;;;;;;9.67;7.67;;;;;23.79;64.90;100447.19;5058279;28;45363;-72
2023/06/20 06:29:04;;;;;;;;;7.00;6.00;;;;;24.03;64.61;100450.72;5057916;28;45380;-73
2023/06/20 06:31:31;;;;;;;;;8.67;8.00;;;;;24.21;64.34;100466.00;5055393;28;47593;-75
2023/06/20 06:33:57;;;;;;;;;10.00;7.00;;;;;24.32;63.31;100478.78;5037532;28;45477;-74
2023/06/20 06:36:24;;;;;;;;;9.00;9.00;;;;;24.30;63.13;100464.63;5057381;28;45585;-73
2023/06/20 06:38:51;;;;;;;;;11.00;10.33;;;;;24.28;62.85;100434.13;5057996;28;45170;-72
2023/06/20 06:41:19;;;;;;;;;9.33;7.33;;;;;24.79;62.59;100484.84;5057520;28;46417;-73
2023/06/20 06:43:45;;;;;;;;;7.67;6.67;;;;;24.99;61.11;100489.84;5057419;28;45491;-73
2023/06/20 06:46:10;;;;;;;;;8.33;7.33;;;;;24.83;60.51;100437.09;5057721;28;45546;-74
2023/06/20 06:48:36;;;;;;;;;9.33;8.33;;;;;25.20;59.95;100488.31;5057944;28;45201;-74
2023/06/20 06:51:02;;;;;;;;;12.00;10.00;;;;;25.21;59.85;100489.97;5057435;28;46090;-76
2023/06/20 06:53:28;;;;;;;;;10.33;9.67;;;;;25.18;59.89;100483.13;5039068;28;45404;-73
2023/06/20 06:55:53;;;;;;;;;7.75;7.75;;;;;25.14;59.83;100476.53;5057171;28;45228;-72
2023/06/20 06:58:19;;;;;;;;;11.00;9.67;;;;;25.07;59.92;100459.56;5057411;28;45325;-72
2023/06/20 07:00:44;;;;;;;;;12.00;10.00;;;;;25.12;59.78;100456.09;5057159;28;46385;-72
2023/06/20 07:03:10;;;;;;;;;17.00;11.33;;;;;25.08;60.01;100455.75;5057332;28;45384;-73
2023/06/20 07:05:36;;;;;;;;;8.67;8.00;;;;;25.05;59.80;100455.44;5057275;28;45530;-77
2023/06/20 07:08:01;;;;;;;;;8.67;8.00;;;;;25.09;59.34;100462.84;5057284;28;45357;-73
2023/06/20 07:10:27;;;;;;;;;8.67;8.67;;;;;25.04;59.54;100464.66;5057146;28;46604;-72
2023/06/20 07:12:52;;;;;;;;;11.67;11.67;;;;;25.03;59.38;100455.69;5039212;28;45475;-73
2023/06/20 07:15:17;;;;;;;;;10.00;9.67;;;;;25.08;59.34;100463.94;5056773;28;45479;-72
2023/06/20 07:17:43;;;;;;;;;12.33;12.33;;;;;25.06;59.77;100473.41;5055901;28;45494;-73
2023/06/20 07:20:09;;;;;;;;;15.67;9.67;;;;;24.98;59.65;100482.75;5056519;28;46225;-74
2023/06/20 07:22:35;;;;;;;;;12.00;12.00;;;;;24.84;59.91;100470.53;5056697;28;45361;-72
2023/06/20 07:25:01;;;;;;;;;16.00;11.67;;;;;24.90;59.97;100466.84;5038426;28;45276;-73
2023/06/20 07:27:26;;;;;;;;;11.67;10.67;;;;;25.06;59.91;100495.16;5057092;28;45478;-73
2023/06/20 07:29:51;;;;;;;;;13.33;13.33;;;;;25.00;59.71;100477.09;5057026;28;45840;-74
2023/06/20 07:32:18;;;;;;;;;9.00;9.00;;;;;25.06;59.62;100496.00;5056797;28;45342;-72
2023/06/20 07:34:44;;;;;;;;;9.67;9.67;;;;;24.99;59.40;100495.31;5057278;28;45340;-72
2023/06/20 07:37:09;;;;;;;;;11.00;9.33;;;;;25.04;59.14;100514.47;5057054;28;45372;-73
2023/06/20 07:39:39;;;;;;;;;11.00;11.00;;;;;24.99;59.34;100511.63;5056894;28;46344;-72
2023/06/20 07:42:04;;;;;;;;;11.67;8.67;;;;;24.65;59.62;100455.50;5069080;27;45237;-72
2023/06/20 07:44:30;;;;;;;;;13.67;9.67;;;;;24.35;59.25;100409.53;5077155;28;45501;-73
2023/06/20 07:46:55;;;;;;;;;9.33;9.33;;;;;25.02;59.66;100524.72;5076755;27;47346;-73
2023/06/20 07:49:20;;;;;;;;;12.00;9.00;;;;;24.84;59.62;100508.63;5076820;28;47936;-73
2023/06/20 07:51:46;;;;;;;;;10.67;10.33;;;;;24.93;59.56;100520.72;5057799;28;49804;-73
2023/06/20 07:54:14;;;;;;;;;9.33;9.33;;;;;24.92;59.48;100524.53;5076675;27;45682;-72
2023/06/20 07:56:39;;;;;;;;;12.00;12.00;;;;;24.87;59.88;100513.56;5058511;28;45312;-75
2023/06/20 07:59:04;;;;;;;;;12.33;11.33;;;;;24.88;59.67;100512.50;5058372;28;48800;-74
2023/06/20 08:01:30;;;;;;;;;18.33;15.67;;;;;24.96;60.05;100528.41;5076351;27;45603;-73
2023/06/20 08:03:56;;;;;;;;;11.67;11.00;;;;;24.83;60.16;100507.78;5077194;27;45342;-73
2023/06/20 08:06:21;;;;;;;;;13.33;10.00;;;;;24.92;60.09;100527.25;5076087;28;45450;-73
2023/06/20 08:08:46;;;;;;;;;10.33;10.33;;;;;24.86;60.09;100520.91;5076429;27;46369;-73
2023/06/20 08:11:12;;;;;;;;;12.00;11.00;;;;;24.91;60.14;100533.75;5076000;28;45381;-74
2023/06/20 08:13:37;;;;;;;;;12.00;11.00;;;;;24.90;59.58;100523.94;5076693;27;45397;-73
2023/06/20 08:16:03;;;;;;;;;13.00;10.33;;;;;24.99;60.23;100522.50;5075953;28;45201;-73
2023/06/20 08:18:29;;;;;;;;;12.00;10.33;;;;;25.05;59.77;100526.97;5060671;28;45450;-74
2023/06/20 08:20:54;;;;;;;;;10.67;10.33;;;;;25.08;59.51;100520.22;5056768;28;45398;-71
2023/06/20 08:23:26;;;;;;;;;14.00;13.67;;;;;25.07;59.56;100519.41;5076095;28;45447;-74
2023/06/20 08:25:53;;;;;;;;;13.67;13.33;;;;;24.81;59.35;100460.13;5076733;28;45498;-73
2023/06/20 08:28:19;;;;;;;;;13.67;13.67;;;;;25.25;58.73;100514.81;5075929;28;45903;-73
2023/06/20 08:30:44;;;;;;;;;14.00;12.00;;;;;24.99;58.80;100473.53;5079768;27;45481;-73
2023/06/20 08:33:09;;;;;;;;;12.33;11.00;;;;;25.33;58.65;100512.50;5079316;27;45289;-75
2023/06/20 08:35:35;;;;;;;;;16.33;15.33;;;;;25.35;58.41;100510.34;5079540;27;51805;-74
2023/06/20 08:38:00;;;;;;;;;14.00;14.00;;;;;25.22;58.77;100472.56;5078912;27;46492;-73
2023/06/20 08:40:25;;;;;;;;;8.33;8.33;;;;;25.49;58.55;100505.41;5078439;27;65254;-74
2023/06/20 08:42:55;;;;;;;;;19.00;16.67;;;;;25.45;58.64;100487.94;5079219;27;45444;-72
2023/06/20 08:45:21;;;;;;;;;14.00;12.00;;;;;25.53;58.07;100495.66;5079762;28;45572;-72
2023/06/20 08:47:47;;;;;;;;;22.67;17.00;;;;;25.48;58.55;100482.81;5060989;28;48898;-72
2023/06/20 08:50:12;;;;;;;;;16.67;15.00;;;;;25.60;58.11;100473.72;5080027;27;45434;-74
2023/06/20 08:52:46;;;;;;;;;13.67;11.00;;;;;25.50;57.78;100455.34;5079552;28;45731;-74
2023/06/20 08:55:13;;;;;;;;;11.67;10.00;;;;;25.70;57.94;100485.63;5064112;27;45415;-75
2023/06/20 08:57:38;;;;;;;;;13.00;13.00;;;;;25.73;58.48;100490.56;5058119;28;46615;-72
2023/06/20 09:00:06;;;;;;;;;14.33;13.67;;;;;25.71;58.27;100490.00;5041681;28;46180;-73
2023/06/20 09:02:32;;;;;;;;;12.00;12.00;;;;;25.83;58.41;100486.31;5059994;28;45444;-73
2023/06/20 09:05:04;;;;;;;;;15.33;13.00;;;;;25.83;58.01;100472.69;5059616;28;45221;-73
2023/06/20 09:07:37;;;;;;;;;17.00;16.00;;;;;25.80;57.89;100449.53;5040096;28;46634;-72
2023/06/20 09:10:04;;;;;;;;;16.00;14.67;;;;;25.97;57.78;100474.81;5059086;28;45482;-72
2023/06/20 09:12:46;;;;;;;;;12.00;12.00;;;;;25.98;57.70;100479.19;5059105;28;45338;-73
2023/06/20 09:15:13;;;;;;;;;14.33;13.67;;;;;26.03;57.32;100476.56;5059297;28;45318;-73
2023/06/20 09:17:40;;;;;;;;;16.00;16.00;;;;;26.06;57.90;100473.31;5058734;28;46052;-73
2023/06/20 09:20:08;;;;;;;;;12.33;12.33;;;;;26.12;57.36;100481.56;5040915;28;45595;-73
2023/06/20 09:22:33;;;;;;;;;11.00;10.33;;;;;25.98;57.32;100459.28;5058711;28;45507;-73
2023/06/20 09:25:01;;;;;;;;;13.33;12.67;;;;;25.86;57.54;100428.66;5058924;28;45425;-73
2023/06/20 09:27:26;;;;;;;;;12.67;11.67;;;;;26.11;57.69;100475.28;5058235;28;46654;-75
2023/06/20 09:29:56;;;;;;;;;10.67;10.67;;;;;26.07;57.44;100457.81;5040471;28;45371;-74
2023/06/20 09:32:22;;;;;;;;;14.00;10.33;;;;;25.98;57.29;100437.50;5059536;28;45484;-73
2023/06/20 09:34:47;;;;;;;;;13.00;11.00;;;;;26.08;57.30;100459.44;5058951;28;45611;-74
2023/06/20 09:37:19;;;;;;;;;15.00;13.00;;;;;26.02;57.78;100442.19;5065451;28;46019;-73
2023/06/20 09:39:44;;;;;;;;;16.33;13.00;;;;;26.06;57.95;100446.06;5078580;27;45539;-73
2023/06/20 09:42:14;;;;;;;;;15.00;13.33;;;;;26.17;57.76;100465.25;5078455;28;45337;-74
2023/06/20 09:44:40;;;;;;;;;12.33;11.33;;;;;26.14;57.23;100452.97;5060821;28;45432;-74
2023/06/20 09:47:06;;;;;;;;;12.33;11.00;;;;;26.09;57.70;100442.03;5078122;27;45775;-74
2023/06/20 09:49:34;;;;;;;;;14.67;13.67;;;;;26.21;57.28;100455.50;5078169;28;45500;-73
2023/06/20 09:52:14;;;;;;;;;17.67;16.33;;;;;26.18;57.92;100454.09;5077813;28;45454;-74
2023/06/20 09:54:57;;;;;;;;;16.67;14.00;;;;;25.95;57.85;100410.78;5078631;27;45293;-74
2023/06/20 09:57:36;;;;;;;;;14.33;13.33;;;;;26.21;56.99;100452.78;5060473;28;45786;-73
2023/06/20 10:00:04;;;;;;;;;11.00;10.33;;;;;26.28;56.89;100465.16;5078191;27;45410;-73
2023/06/20 10:02:33;;;;;;;;;15.00;12.00;;;;;26.04;56.10;100431.88;5078192;27;45423;-74
2023/06/20 10:04:59;;;;;;;;;9.33;9.33;;;;;26.17;55.58;100446.19;5078109;28;45438;-78
2023/06/20 10:07:25;;;;;;;;;9.00;8.67;;;;;26.48;54.67;100499.22;5077734;27;46640;-72
2023/06/20 10:09:54;;;;;;;;;8.33;8.33;;;;;26.55;54.31;100497.91;5060076;28;45406;-73
2023/06/20 10:12:20;;;;;;;;;10.67;10.00;;;;;25.80;53.86;100359.66;5078027;28;45439;-73
2023/06/20 10:14:46;;;;;;;;;9.67;9.67;;;;;26.80;53.79;100507.44;5060256;28;45750;-73
2023/06/20 10:17:12;;;;;;;;;13.67;12.33;;;;;26.90;54.58;100508.41;5077807;27;45325;-74
2023/06/20 10:19:50;;;;;;;;;6.67;5.67;;;;;26.98;52.99;100513.38;5078080;28;45414;-73
2023/06/20 10:22:32;;;;;;;;;11.00;10.00;;;;;27.10;53.16;100515.16;5073355;27;45440;-73
2023/06/20 10:25:00;;;;;;;;;15.00;12.00;;;;;27.16;52.52;100514.13;5058214;28;45176;-73
2023/06/20 10:27:27;;;;;;;;;8.67;8.67;;;;;27.16;52.40;100508.66;5057831;28;46484;-74
2023/06/20 10:29:53;;;;;;;;;10.00;10.00;;;;;27.21;51.60;100519.63;5039331;28;45419;-73
2023/06/20 10:32:18;;;;;;;;;10.00;10.00;;;;;27.25;51.24;100531.69;5057898;28;45463;-72
2023/06/20 10:34:44;;;;;;;;;9.67;9.00;;;;;27.29;51.40;100532.81;5058054;28;45304;-73
2023/06/20 10:37:27;;;;;;;;;10.00;9.00;;;;;27.36;50.62;100525.22;5057403;28;45591;-73
2023/06/20 10:39:57;;;;;;;;;7.33;7.00;;;;;27.13;49.22;100479.16;5057900;28;45401;-74
2023/06/20 10:42:30;;;;;;;;;9.00;8.00;;;;;27.28;49.70;100499.22;5062561;28;45411;-74
2023/06/20 10:45:25;;;;;;;;;11.00;9.00;;;;;27.49;49.73;100524.78;5078090;27;45548;-73
2023/06/20 10:47:52;;;;;;;;;10.33;7.33;;;;;27.55;49.99;100518.28;5077365;28;45761;-74
2023/06/20 10:50:19;;;;;;;;;8.67;8.67;;;;;27.68;50.05;100524.41;5071840;27;45369;-73
2023/06/20 10:52:44;;;;;;;;;9.67;8.00;;;;;27.50;50.34;100488.19;5057579;28;45494;-75
2023/06/20 10:55:21;;;;;;;;;7.33;7.33;;;;;27.75;49.30;100528.56;5057769;28;45713;-74
2023/06/20 10:57:47;;;;;;;;;10.00;8.67;;;;;27.76;48.57;100521.19;5057330;28;46407;-74
2023/06/20 11:00:18;;;;;;;;;10.67;10.67;;;;;27.81;48.49;100527.50;5056976;28;45426;-72
2023/06/20 11:02:46;;;;;;;;;8.00;8.00;;;;;27.77;48.84;100514.63;5052483;28;45301;-74
2023/06/20 11:05:11;;;;;;;;;8.00;8.00;;;;;27.75;49.88;100497.69;5057582;28;45362;-73
2023/06/20 11:07:59;;;;;;;;;6.33;6.33;;;;;27.98;49.36;100532.78;5038800;28;53892;-72
2023/06/20 11:10:30;;;;;;;;;9.67;8.67;;;;;27.94;49.51;100525.41;5054298;28;45404;-72
2023/06/20 11:12:57;;;;;;;;;10.00;7.67;;;;;27.82;49.25;100506.47;5051385;28;45595;-75
2023/06/20 11:15:24;;;;;;;;;9.67;9.67;;;;;28.03;49.24;100551.13;5057363;28;45464;-74
2023/06/20 11:17:49;;;;;;;;;8.33;7.33;;;;;27.80;48.88;100509.47;5057051;28;45676;-73
2023/06/20 11:20:16;;;;;;;;;6.67;6.67;;;;;27.90;48.60;100519.63;5057251;28;45448;-74
2023/06/20 11:22:42;;;;;;;;;45.00;38.33;;;;;27.77;48.75;100499.06;5054457;28;45406;-75